Time;durP1;ratioP1;P1;durP2;ratioP2;P2;SDS_P1;SDS_P2;PMS_P1;PMS_P2;Temp;Humidity;BMP_temperature;BMP_pressure;BME280_temperature;BME280_humidity;BME280_pressure;Samples;Min_cycle;Max_cycle;Signal;HPM_P1;HPM_P2
2022/07/16 00:03:14;;;;;;;21.00;5.70;;;;;;;13.39;49.22;99278.77;106004;1277;99341;-64
2022/07/16 00:05:45;;;;;;;13.80;4.60;;;;;;;13.38;49.26;99281.73;105971;1276;113402;-65
2022/07/16 00:08:15;;;;;;;14.10;4.40;;;;;;;13.35;49.24;99279.63;105950;1277;99349;-64
2022/07/16 00:10:43;;;;;;;11.90;4.00;;;;;;;13.36;49.29;99283.34;106002;1277;108393;-65
2022/07/16 00:13:14;;;;;;;14.10;4.20;;;;;;;13.34;49.38;99281.35;105985;1277;99187;-64
2022/07/16 00:15:45;;;;;;;10.10;4.10;;;;;;;13.31;49.53;99283.88;105966;1277;98348;-64
2022/07/16 00:21:03;;;;;;;14.10;4.70;;;;;;;13.25;49.53;99282.77;106123;1277;99271;-64
2022/07/16 00:23:31;;;;;;;16.60;5.30;;;;;;;13.11;49.36;99282.27;106058;1277;108303;-66
2022/07/16 00:26:01;;;;;;;15.90;4.40;;;;;;;12.93;49.32;99280.13;106001;1277;96642;-66
2022/07/16 00:28:31;;;;;;;18.10;3.80;;;;;;;12.83;49.77;99280.04;105959;1277;99217;-64
2022/07/16 00:31:04;;;;;;;12.10;4.00;;;;;;;12.84;49.95;99277.33;106003;1277;113868;-65
2022/07/16 00:33:35;;;;;;;17.50;6.40;;;;;;;12.84;50.10;99271.92;106122;1277;99234;-67
2022/07/16 00:36:05;;;;;;;18.90;6.60;;;;;;;12.83;50.23;99272.20;106001;1277;108471;-65
2022/07/16 00:38:33;;;;;;;19.70;6.00;;;;;;;12.82;50.24;99271.23;106101;1277;99225;-66
2022/07/16 00:41:02;;;;;;;22.90;6.50;;;;;;;12.79;50.36;99268.89;106090;1277;99239;-65
2022/07/16 00:43:30;;;;;;;20.70;6.90;;;;;;;12.75;50.29;99269.81;106119;1277;113257;-64
2022/07/16 00:45:58;;;;;;;17.00;6.20;;;;;;;12.71;50.37;99274.90;106083;1277;99194;-65
2022/07/16 00:48:36;;;;;;;16.70;4.80;;;;;;;12.66;50.53;99269.90;105906;1277;108327;-65
2022/07/16 00:51:09;;;;;;;16.20;4.70;;;;;;;12.64;50.59;99271.52;106013;1276;99330;-65
2022/07/16 00:53:41;;;;;;;20.00;4.50;;;;;;;12.62;50.65;99267.26;105951;1277;96621;-65
2022/07/16 00:56:18;;;;;;;11.70;3.80;;;;;;;12.58;50.43;99263.80;105976;1277;112655;-66
2022/07/16 00:58:51;;;;;;;8.90;3.70;;;;;;;12.42;50.04;99264.55;105988;1277;99220;-65
2022/07/16 01:01:21;;;;;;;10.10;3.90;;;;;;;12.18;50.12;99262.73;105974;1277;107689;-64
2022/07/16 01:03:52;;;;;;;12.30;4.20;;;;;;;11.99;50.41;99259.57;105959;1277;99928;-66
2022/07/16 01:06:22;;;;;;;11.60;4.00;;;;;;;11.89;50.91;99256.19;105982;1277;99243;-67
2022/07/16 01:08:55;;;;;;;11.80;4.00;;;;;;;11.89;51.19;99253.52;106048;1277;113127;-64
2022/07/16 01:11:23;;;;;;;10.00;3.40;;;;;;;11.90;51.20;99250.95;106048;1277;96534;-65
2022/07/16 01:13:52;;;;;;;12.90;4.20;;;;;;;11.87;51.04;99249.77;105894;1277;108321;-63
2022/07/16 01:16:20;;;;;;;9.90;3.60;;;;;;;11.78;50.72;99247.43;106010;1277;99332;-65
2022/07/16 01:18:53;;;;;;;10.60;3.70;;;;;;;11.56;50.45;99247.27;106104;1277;96731;-63
2022/07/16 01:21:21;;;;;;;14.50;4.60;;;;;;;11.39;50.78;99242.84;106069;1277;111976;-64
2022/07/16 01:23:54;;;;;;;11.00;3.50;;;;;;;11.27;51.28;99240.64;106064;1277;99192;-64
2022/07/16 01:26:22;;;;;;;12.30;3.70;;;;;;;11.27;51.73;99232.84;106004;1277;107626;-66
2022/07/16 01:28:52;;;;;;;12.80;3.90;;;;;;;11.30;51.88;99237.77;105960;1277;96728;-64
2022/07/16 01:31:23;;;;;;;14.90;4.00;;;;;;;11.31;51.56;99234.17;105966;1277;99332;-64
2022/07/16 01:36:40;;;;;;;13.00;4.40;;;;;;;11.29;52.05;99230.98;105968;1277;96627;-64
2022/07/16 01:39:10;;;;;;;11.90;4.20;;;;;;;11.26;51.88;99230.27;105854;1276;108419;-65
2022/07/16 01:41:58;;;;;;;12.00;4.40;;;;;;;11.19;51.88;99228.66;106048;1277;99278;-67
2022/07/16 01:44:30;;;;;;;10.70;4.20;;;;;;;11.13;52.17;99227.30;106001;1276;99236;-64
2022/07/16 01:47:02;;;;;;;12.70;4.60;;;;;;;11.12;52.48;99227.34;105995;1277;112819;-64
2022/07/16 01:49:36;;;;;;;11.30;4.20;;;;;;;11.15;52.60;99223.95;105989;1277;99290;-66
2022/07/16 01:52:08;;;;;;;10.50;3.90;;;;;;;11.20;52.79;99222.20;106035;1276;107690;-66
2022/07/16 01:54:42;;;;;;;12.80;4.30;;;;;;;11.23;52.75;99220.17;105981;1277;99199;-66
2022/07/16 01:57:13;;;;;;;19.90;4.90;;;;;;;11.21;52.70;99220.54;105935;1277;99220;-66
2022/07/16 01:59:44;;;;;;;14.70;4.40;;;;;;;11.19;52.99;99223.52;106068;1277;112746;-65
2022/07/16 02:02:15;;;;;;;14.00;4.50;;;;;;;11.21;53.10;99221.09;106097;1277;99237;-66
2022/07/16 02:04:45;;;;;;;11.50;4.00;;;;;;;11.23;53.24;99225.69;106066;1277;108195;-64
2022/07/16 02:07:13;;;;;;;11.50;3.90;;;;;;;11.28;53.22;99225.18;106027;1277;99369;-65
2022/07/16 02:09:43;;;;;;;10.60;3.90;;;;;;;11.31;53.33;99222.99;106054;1277;99221;-65
2022/07/16 02:12:11;;;;;;;10.60;3.70;;;;;;;11.34;53.36;99221.90;105947;1277;113438;-64
2022/07/16 02:14:39;;;;;;;15.10;3.80;;;;;;;11.36;53.63;99218.04;105984;1277;99227;-64
2022/07/16 02:17:07;;;;;;;10.90;3.70;;;;;;;11.36;53.54;99211.45;105916;1276;107397;-65
2022/07/16 02:19:37;;;;;;;10.90;4.00;;;;;;;11.37;53.65;99210.87;105961;1276;99227;-62
2022/07/16 02:22:07;;;;;;;13.70;5.20;;;;;;;11.36;53.65;99211.11;106027;1277;99145;-66
2022/07/16 02:24:36;;;;;;;9.70;3.70;;;;;;;11.34;53.75;99209.11;105999;1277;113348;-66
2022/07/16 02:27:05;;;;;;;12.80;4.90;;;;;;;11.34;53.88;99211.73;105918;1277;97470;-64
2022/07/16 02:29:33;;;;;;;16.20;4.50;;;;;;;11.36;53.89;99208.76;105926;1277;107356;-66
2022/07/16 02:32:06;;;;;;;17.20;4.10;;;;;;;11.39;53.98;99209.48;105907;1277;97639;-65
2022/07/16 02:34:34;;;;;;;14.20;4.20;;;;;;;11.40;54.01;99206.02;105915;1277;99304;-64
2022/07/16 02:37:04;;;;;;;14.90;4.80;;;;;;;11.39;53.87;99208.38;105927;1277;113306;-64
2022/07/16 02:39:32;;;;;;;15.00;5.10;;;;;;;11.31;53.74;99204.87;105959;1277;97658;-65
2022/07/16 02:42:03;;;;;;;14.30;4.60;;;;;;;11.23;53.92;99202.92;106018;1277;109014;-65
2022/07/16 02:44:34;;;;;;;16.60;4.50;;;;;;;11.21;54.03;99201.18;106025;1277;99220;-65
2022/07/16 02:47:05;;;;;;;14.70;4.30;;;;;;;11.19;54.27;99198.83;105997;1277;99243;-64
2022/07/16 02:49:33;;;;;;;13.30;4.00;;;;;;;11.21;54.39;99204.20;105889;1276;112533;-64
2022/07/16 02:52:03;;;;;;;13.00;4.20;;;;;;;11.22;54.52;99205.57;105874;1277;97901;-64
2022/07/16 02:54:33;;;;;;;13.30;4.70;;;;;;;11.23;54.60;99207.42;105927;1276;107981;-64
2022/07/16 02:57:01;;;;;;;16.40;4.50;;;;;;;11.22;54.53;99199.84;105965;1277;99313;-65
2022/07/16 02:59:31;;;;;;;11.40;4.00;;;;;;;11.23;54.73;99202.79;105997;1277;99170;-65
2022/07/16 03:02:06;;;;;;;11.40;4.10;;;;;;;11.25;54.75;99205.46;105938;1276;113265;-64
2022/07/16 03:04:34;;;;;;;15.20;4.00;;;;;;;11.26;54.76;99206.70;105976;1277;99189;-65
2022/07/16 03:07:05;;;;;;;13.60;4.50;;;;;;;11.26;54.90;99206.80;105939;1277;108339;-65
2022/07/16 03:09:35;;;;;;;12.70;3.90;;;;;;;11.27;54.98;99205.30;105933;1277;99110;-63
2022/07/16 03:12:05;;;;;;;13.30;3.90;;;;;;;11.28;54.89;99206.68;105950;1277;99181;-64
2022/07/16 03:14:33;;;;;;;10.00;4.00;;;;;;;11.28;55.03;99208.63;105967;1277;113396;-63
2022/07/16 03:17:04;;;;;;;10.90;4.10;;;;;;;11.29;55.11;99205.55;106016;1277;99335;-63
2022/07/16 03:19:32;;;;;;;12.60;4.00;;;;;;;11.29;55.13;99206.60;106076;1276;108359;-64
2022/07/16 03:22:05;;;;;;;9.60;3.90;;;;;;;11.29;55.20;99203.40;106056;1277;99122;-66
2022/07/16 03:24:36;;;;;;;10.90;4.00;;;;;;;11.29;55.37;99206.96;106027;1277;99228;-64
2022/07/16 03:27:03;;;;;;;12.40;3.80;;;;;;;11.30;55.27;99212.23;106079;1277;113210;-65
2022/07/16 03:29:31;;;;;;;8.20;3.70;;;;;;;11.27;54.97;99212.08;106080;1277;96598;-65
2022/07/16 03:31:59;;;;;;;12.60;3.90;;;;;;;11.19;54.93;99211.60;106074;1277;106435;-65
2022/07/16 03:34:37;;;;;;;10.60;4.00;;;;;;;11.16;55.18;99211.46;102847;1310;636245;-65
2022/07/16 03:37:10;;;;;;;10.70;3.80;;;;;;;11.13;55.44;99210.98;105309;1286;94232;-64
2022/07/16 03:39:38;;;;;;;10.90;3.90;;;;;;;11.13;55.45;99213.63;105894;1277;94275;-64
2022/07/16 03:42:06;;;;;;;11.20;3.90;;;;;;;11.13;55.59;99216.48;105850;1277;107987;-65
2022/07/16 03:44:36;;;;;;;13.40;4.20;;;;;;;11.15;55.78;99213.64;105909;1277;93835;-64
2022/07/16 03:47:07;;;;;;;10.40;4.30;;;;;;;11.21;55.89;99216.62;104754;1277;2970225;-65
2022/07/16 03:49:37;;;;;;;10.70;3.50;;;;;;;11.26;56.02;99220.35;106010;1277;94264;-65
2022/07/16 03:52:10;;;;;;;11.40;3.70;;;;;;;11.30;55.96;99214.72;106018;1277;93931;-62
2022/07/16 03:54:38;;;;;;;9.30;3.60;;;;;;;11.35;56.07;99213.86;106019;1277;107931;-63
2022/07/16 03:57:08;;;;;;;10.60;4.10;;;;;;;11.37;56.23;99214.20;106008;1277;94074;-65
2022/07/16 03:59:36;;;;;;;12.30;3.70;;;;;;;11.41;56.23;99214.81;105980;1277;108341;-63
2022/07/16 04:02:04;;;;;;;14.20;3.80;;;;;;;11.44;56.16;99212.28;106011;1277;94282;-64
2022/07/16 04:04:31;;;;;;;14.00;3.90;;;;;;;11.47;56.32;99212.38;106001;1277;95207;-64
2022/07/16 04:07:02;;;;;;;10.00;4.10;;;;;;;11.51;56.46;99209.42;105995;1277;109307;-64
2022/07/16 04:09:32;;;;;;;11.90;4.10;;;;;;;11.55;56.48;99209.88;106018;1277;95369;-63
2022/07/16 04:12:05;;;;;;;13.80;4.00;;;;;;;11.58;56.61;99211.98;105961;1276;108963;-65
2022/07/16 04:14:33;;;;;;;14.40;3.80;;;;;;;11.61;56.56;99213.29;105976;1276;94262;-64
2022/07/16 04:17:01;;;;;;;16.50;4.00;;;;;;;11.65;56.67;99209.81;106001;1277;94233;-64
2022/07/16 04:19:29;;;;;;;10.30;3.70;;;;;;;11.68;56.71;99211.71;106087;1277;109209;-65
2022/07/16 04:21:59;;;;;;;11.90;4.40;;;;;;;11.72;56.87;99213.42;106137;1274;95153;-66
2022/07/16 04:24:26;;;;;;;13.60;4.60;;;;;;;11.76;56.87;99214.17;106106;1274;108590;-65
2022/07/16 04:26:54;;;;;;;10.40;4.00;;;;;;;11.80;56.98;99214.94;106090;1274;94265;-65
2022/07/16 04:29:28;;;;;;;11.20;4.10;;;;;;;11.85;56.96;99213.14;106110;1274;95142;-64
2022/07/16 04:31:55;;;;;;;12.30;4.10;;;;;;;11.90;57.06;99213.27;106072;1274;109247;-65
2022/07/16 04:34:25;;;;;;;11.50;3.90;;;;;;;11.96;57.17;99208.10;106126;1274;94283;-66
2022/07/16 04:36:56;;;;;;;10.50;4.20;;;;;;;12.00;57.22;99207.92;106081;1273;108195;-66
2022/07/16 04:39:26;;;;;;;12.80;3.80;;;;;;;12.05;57.30;99205.94;106075;1274;95131;-64
2022/07/16 04:41:56;;;;;;;13.70;4.10;;;;;;;12.11;57.32;99207.84;106122;1274;95156;-64
2022/07/16 04:44:26;;;;;;;11.40;3.90;;;;;;;12.17;57.34;99209.73;106105;1274;109291;-64
2022/07/16 04:46:54;;;;;;;13.80;4.90;;;;;;;12.22;57.39;99212.88;106098;1272;94250;-64
2022/07/16 04:49:24;;;;;;;11.20;4.00;;;;;;;12.28;57.50;99210.05;106077;1274;108791;-64
2022/07/16 04:51:52;;;;;;;10.00;4.10;;;;;;;12.34;57.41;99209.80;106066;1274;95048;-64
2022/07/16 04:54:20;;;;;;;15.70;4.40;;;;;;;12.41;57.39;99205.39;106092;1274;94315;-64
2022/07/16 04:56:51;;;;;;;13.30;4.10;;;;;;;12.47;57.35;99203.67;106087;1274;109318;-64
2022/07/16 04:59:23;;;;;;;13.80;4.10;;;;;;;12.53;57.47;99202.46;106105;1274;95157;-64
2022/07/16 05:02:56;;;;;;;10.20;3.90;;;;;;;12.60;57.49;99198.20;106121;1274;107729;-65
2022/07/16 05:04:43;;;;;;;10.50;3.50;;;;;;;12.69;57.58;99203.71;106158;1274;95209;-64
2022/07/16 05:07:13;;;;;;;14.60;4.10;;;;;;;12.76;57.69;99204.01;106229;1274;95194;-63
2022/07/16 05:09:41;;;;;;;12.60;3.60;;;;;;;12.85;57.58;99201.55;106147;1274;109779;-66
2022/07/16 05:12:09;;;;;;;10.00;3.60;;;;;;;12.93;57.69;99199.29;106110;1274;95415;-64
2022/07/16 05:14:37;;;;;;;15.00;4.00;;;;;;;13.03;57.58;99201.21;106106;1274;108326;-64
2022/07/16 05:17:05;;;;;;;16.30;4.00;;;;;;;13.12;57.78;99201.16;106108;1274;95268;-63
2022/07/16 05:19:36;;;;;;;13.20;4.10;;;;;;;13.21;57.72;99200.81;106114;1274;95112;-64
2022/07/16 05:22:10;;;;;;;16.50;3.80;;;;;;;13.28;57.83;99198.42;106118;1274;109456;-64
2022/07/16 05:24:38;;;;;;;8.80;3.70;;;;;;;13.35;57.75;99200.02;106123;1273;95256;-65
2022/07/16 05:27:08;;;;;;;12.00;3.10;;;;;;;13.43;57.92;99200.83;106113;1274;109108;-65
2022/07/16 05:29:36;;;;;;;8.20;3.30;;;;;;;13.52;57.81;99196.20;106181;1274;94294;-70
2022/07/16 05:32:05;;;;;;;7.40;3.10;;;;;;;13.60;57.80;99197.84;106140;1273;94276;-68
2022/07/16 05:34:36;;;;;;;7.80;3.00;;;;;;;13.70;57.81;99195.02;106037;1274;109131;-66
2022/07/16 05:37:07;;;;;;;8.50;2.80;;;;;;;13.78;57.84;99194.55;106046;1274;95195;-65
2022/07/16 05:39:34;;;;;;;10.30;2.70;;;;;;;13.87;57.85;99197.20;105975;1274;108395;-67
2022/07/16 05:42:02;;;;;;;9.60;3.60;;;;;;;13.97;57.66;99195.13;106007;1274;95361;-68
2022/07/16 05:44:30;;;;;;;7.20;3.00;;;;;;;14.07;57.59;99195.73;106203;1274;94286;-70
2022/07/16 05:46:59;;;;;;;5.90;2.70;;;;;;;14.19;57.58;99190.42;106003;1274;109268;-70
2022/07/16 05:49:26;;;;;;;15.60;3.90;;;;;;;14.32;57.53;99189.96;106081;1274;95190;-72
2022/07/16 05:51:54;;;;;;;14.20;3.90;;;;;;;14.47;57.52;99191.41;106042;1274;107855;-69
2022/07/16 05:54:22;;;;;;;13.50;3.80;;;;;;;14.63;57.48;99194.30;105969;1274;95147;-77
2022/07/16 05:56:50;;;;;;;9.80;3.30;;;;;;;14.79;57.50;99190.08;106175;1274;95223;-67
2022/07/16 05:59:17;;;;;;;7.80;3.50;;;;;;;14.97;57.64;99192.05;106108;1274;108793;-71
2022/07/16 06:01:46;;;;;;;10.60;3.10;;;;;;;15.16;57.59;99195.92;106239;1274;94454;-68
2022/07/16 06:04:16;;;;;;;9.80;3.00;;;;;;;15.32;57.59;99197.68;106101;1274;108266;-69
2022/07/16 06:06:45;;;;;;;7.70;2.80;;;;;;;15.48;57.53;99199.33;106012;1273;95246;-66
2022/07/16 06:09:14;;;;;;;7.10;2.60;;;;;;;15.62;57.48;99195.52;106052;1274;94350;-67
2022/07/16 06:11:46;;;;;;;6.70;2.70;;;;;;;15.74;57.46;99196.75;106041;1274;110047;-70
2022/07/16 06:14:15;;;;;;;7.50;2.60;;;;;;;15.87;57.40;99204.20;106064;1274;95420;-68
2022/07/16 06:16:46;;;;;;;8.20;2.80;;;;;;;15.97;57.28;99200.02;106040;1274;108243;-71
2022/07/16 06:19:17;;;;;;;8.30;2.80;;;;;;;16.08;57.35;99206.16;106049;1274;95265;-70
2022/07/16 06:21:45;;;;;;;11.40;2.70;;;;;;;16.21;57.50;99201.25;106065;1274;95257;-70
2022/07/16 06:24:15;;;;;;;9.40;3.10;;;;;;;16.32;57.40;99204.46;106041;1274;108618;-66
2022/07/16 06:26:47;;;;;;;10.00;4.10;;;;;;;16.42;57.39;99204.61;106118;1274;95191;-69
2022/07/16 06:29:19;;;;;;;10.90;4.50;;;;;;;16.53;57.45;99197.14;106087;1274;107484;-75
2022/07/16 06:31:47;;;;;;;13.70;3.90;;;;;;;16.64;57.08;99196.02;106131;1274;95827;-77
2022/07/16 06:34:15;;;;;;;9.60;3.60;;;;;;;16.75;57.06;99193.73;106150;1274;95253;-76
2022/07/16 06:36:43;;;;;;;9.20;2.90;;;;;;;16.90;57.09;99196.86;106203;1274;108696;-76
2022/07/16 06:39:12;;;;;;;12.60;3.90;;;;;;;17.02;57.06;99197.54;106132;1274;95115;-77
2022/07/16 06:41:43;;;;;;;10.90;3.00;;;;;;;17.12;57.18;99192.41;106112;1274;107846;-75
2022/07/16 06:44:11;;;;;;;9.00;2.80;;;;;;;17.24;57.16;99190.34;106126;1274;95194;-73
2022/07/16 06:46:41;;;;;;;5.50;2.50;;;;;;;17.38;57.39;99188.62;106142;1274;96321;-72
2022/07/16 06:49:09;;;;;;;9.00;2.70;;;;;;;17.53;57.17;99185.34;106138;1274;108770;-71
2022/07/16 06:51:37;;;;;;;6.90;2.40;;;;;;;17.68;57.18;99180.30;106056;1274;95244;-71
2022/07/16 06:54:04;;;;;;;7.40;2.40;;;;;;;17.85;57.13;99179.83;106081;1274;107671;-71
2022/07/16 06:56:33;;;;;;;8.60;2.80;;;;;;;18.02;57.25;99181.69;106015;1274;94348;-70
2022/07/16 06:59:03;;;;;;;9.40;2.60;;;;;;;18.21;56.96;99183.95;106048;1274;95167;-71
2022/07/16 07:01:31;;;;;;;10.40;3.00;;;;;;;18.35;56.90;99184.48;105999;1274;108851;-70
2022/07/16 07:04:00;;;;;;;7.80;2.70;;;;;;;18.77;56.50;99182.33;108000;1272;93549;-70
2022/07/16 07:06:28;;;;;;;7.10;2.50;;;;;;;19.23;56.18;99181.20;106544;1273;107849;-72
2022/07/16 07:08:57;;;;;;;6.50;1.90;;;;;;;19.52;56.33;99186.07;106142;1274;94853;-68
2022/07/16 07:11:30;;;;;;;9.50;2.50;;;;;;;19.70;56.31;99181.97;106084;1274;95194;-67
2022/07/16 07:13:58;;;;;;;8.00;2.10;;;;;;;19.83;56.30;99178.39;106143;1274;109073;-69
2022/07/16 07:16:29;;;;;;;8.60;2.40;;;;;;;20.19;55.93;99175.38;106159;1274;95543;-71
2022/07/16 07:18:56;;;;;;;7.80;2.10;;;;;;;20.60;55.87;99172.54;106115;1274;107794;-70
2022/07/16 07:21:26;;;;;;;8.00;2.10;;;;;;;20.96;55.57;99168.36;106115;1274;95139;-68
2022/07/16 07:23:58;;;;;;;6.30;2.50;;;;;;;22.15;54.63;99165.23;106155;1273;95194;-70
2022/07/16 07:26:25;;;;;;;7.20;2.00;;;;;;;23.15;54.50;99165.26;106183;1274;108651;-72
2022/07/16 07:28:53;;;;;;;5.80;2.00;;;;;;;23.41;55.42;99167.16;106155;1274;94225;-75
2022/07/16 07:31:21;;;;;;;6.60;2.10;;;;;;;23.68;55.18;99165.73;106283;1274;107790;-74
2022/07/16 07:33:49;;;;;;;7.30;2.10;;;;;;;23.61;55.14;99169.09;106164;1274;95157;-73
2022/07/16 07:36:17;;;;;;;6.30;1.90;;;;;;;23.57;54.79;99167.59;106227;1274;95162;-72
2022/07/16 07:38:48;;;;;;;10.20;2.70;;;;;;;23.91;54.30;99163.27;106282;1273;107600;-72
2022/07/16 07:41:19;;;;;;;5.70;2.10;;;;;;;24.92;53.45;99158.92;106281;1274;95653;-73
2022/07/16 07:43:47;;;;;;;6.70;2.20;;;;;;;25.93;52.96;99150.52;106133;1274;108165;-73
2022/07/16 07:46:18;;;;;;;12.40;2.20;;;;;;;26.74;52.75;99149.23;106085;1274;95443;-74
2022/07/16 07:48:49;;;;;;;4.00;1.70;;;;;;;27.34;52.69;99147.30;106161;1274;96613;-73
2022/07/16 07:51:17;;;;;;;6.70;2.20;;;;;;;28.05;52.37;99140.27;106128;1274;109038;-72
2022/07/16 07:53:44;;;;;;;6.00;1.80;;;;;;;28.82;51.69;99140.80;106119;1274;96623;-73
2022/07/16 07:56:12;;;;;;;7.60;2.20;;;;;;;29.62;51.55;99136.06;106107;1273;107663;-72
2022/07/16 07:58:40;;;;;;;5.00;1.80;;;;;;;30.54;50.75;99137.19;106159;1274;94753;-73
2022/07/16 08:01:08;;;;;;;7.80;1.80;;;;;;;31.35;50.28;99138.86;106195;1274;94288;-72
2022/07/16 08:03:56;;;;;;;7.00;2.10;;;;;;;32.23;49.96;99137.18;106180;1274;109928;-74
2022/07/16 08:06:26;;;;;;;6.70;1.90;;;;;;;32.19;50.61;99135.33;106215;1274;94349;-74
2022/07/16 08:08:54;;;;;;;5.60;1.80;;;;;;;31.61;50.40;99137.96;106106;1274;107726;-72
2022/07/16 08:11:22;;;;;;;6.20;2.40;;;;;;;32.00;49.39;99136.45;106185;1272;96544;-74
2022/07/16 08:13:50;;;;;;;7.80;2.60;;;;;;;32.17;48.82;99138.53;106143;1274;96510;-73
2022/07/16 08:16:38;;;;;;;6.70;2.20;;;;;;;32.68;47.71;99135.89;106131;1274;110062;-71
2022/07/16 08:19:06;;;;;;;6.50;2.10;;;;;;;32.35;48.65;99140.84;106126;1274;98135;-71
2022/07/16 08:21:34;;;;;;;5.40;2.00;;;;;;;32.23;47.84;99148.65;106118;1274;107707;-71
2022/07/16 08:26:52;;;;;;;6.10;2.00;;;;;;;31.77;46.41;99140.02;106107;1274;96493;-70
2022/07/16 08:29:20;;;;;;;7.50;2.10;;;;;;;32.01;45.93;99141.75;106172;1274;109276;-72
2022/07/16 08:31:47;;;;;;;9.70;2.20;;;;;;;32.07;45.41;99137.18;106216;1274;94357;-71
2022/07/16 08:34:18;;;;;;;3.90;2.00;;;;;;;31.79;45.02;99140.40;106092;1274;107452;-70
2022/07/16 08:36:45;;;;;;;7.20;1.70;;;;;;;31.38;44.89;99146.28;106081;1274;94791;-71
2022/07/16 08:39:13;;;;;;;7.00;2.20;;;;;;;30.78;44.56;99149.39;106121;1274;94297;-70
2022/07/16 08:41:45;;;;;;;4.40;1.80;;;;;;;30.45;43.94;99144.80;106143;1274;110640;-71
2022/07/16 08:44:16;;;;;;;5.40;2.40;;;;;;;30.61;43.37;99142.55;106130;1274;96602;-70
2022/07/16 08:46:44;;;;;;;4.40;1.90;;;;;;;30.69;43.06;99143.52;106117;1274;107749;-69
2022/07/16 08:49:12;;;;;;;8.70;2.10;;;;;;;30.60;42.57;99140.94;106162;1274;96583;-71
2022/07/16 08:51:40;;;;;;;5.60;1.80;;;;;;;30.15;42.67;99139.39;106205;1274;94278;-71
2022/07/16 08:54:17;;;;;;;6.30;1.70;;;;;;;29.73;42.27;99136.80;106176;1274;109239;-70
2022/07/16 08:56:49;;;;;;;8.70;2.70;;;;;;;29.29;41.74;99135.90;106129;1273;97031;-72
2022/07/16 08:59:17;;;;;;;9.30;3.10;;;;;;;28.77;41.60;99137.36;106099;1274;107667;-71
2022/07/16 09:01:48;;;;;;;9.00;2.50;;;;;;;28.32;41.37;99136.00;106086;1273;96526;-70
2022/07/16 09:04:16;;;;;;;6.40;2.40;;;;;;;28.00;41.02;99140.44;106057;1274;96610;-68
2022/07/16 09:06:49;;;;;;;8.30;2.90;;;;;;;27.74;40.80;99139.88;106128;1274;110695;-73
2022/07/16 09:09:17;;;;;;;8.20;2.40;;;;;;;27.38;40.31;99131.88;106122;1273;96540;-70
2022/07/16 09:11:47;;;;;;;7.50;2.50;;;;;;;27.01;40.01;99129.98;106178;1273;107683;-71
2022/07/16 09:14:19;;;;;;;8.10;2.60;;;;;;;26.81;39.80;99128.64;106187;1273;96950;-72
2022/07/16 09:16:51;;;;;;;12.30;2.20;;;;;;;26.59;39.69;99130.09;106144;1274;96532;-72
2022/07/16 09:19:22;;;;;;;11.80;2.20;;;;;;;26.35;39.33;99131.16;106223;1273;110053;-73
2022/07/16 09:22:12;;;;;;;6.90;2.20;;;;;;;26.54;39.54;99131.30;106145;1273;95268;-72
2022/07/16 09:24:52;;;;;;;8.80;2.20;;;;;;;26.83;38.95;99130.61;106172;1274;108803;-72
2022/07/16 09:27:26;;;;;;;7.10;2.10;;;;;;;27.09;38.94;99127.73;106158;1274;96585;-71
2022/07/16 09:30:04;;;;;;;6.10;2.20;;;;;;;26.88;38.85;99126.26;106138;1274;97114;-70
2022/07/16 09:32:36;;;;;;;6.80;2.00;;;;;;;26.58;38.67;99130.10;106643;1273;109919;-70
2022/07/16 09:35:16;;;;;;;7.90;2.30;;;;;;;26.33;38.56;99132.73;106122;1273;94918;-69
2022/07/16 09:37:47;;;;;;;12.40;2.80;;;;;;;26.06;38.44;99131.95;106076;1273;108447;-67
2022/07/16 09:40:43;;;;;;;7.00;2.20;;;;;;;25.81;38.11;99130.66;106221;1273;96647;-69
2022/07/16 09:43:10;;;;;;;4.40;2.00;;;;;;;25.48;38.07;99127.39;106140;1274;96756;-69
2022/07/16 09:45:40;;;;;;;8.50;2.10;;;;;;;25.59;38.06;99125.04;106178;1272;110024;-73
2022/07/16 09:48:26;;;;;;;5.60;2.10;;;;;;;25.76;37.72;99119.52;106264;1274;96927;-72
2022/07/16 09:51:11;;;;;;;6.50;2.00;;;;;;;25.73;37.82;99125.30;106186;1274;107716;-72
2022/07/16 09:53:40;;;;;;;13.30;2.70;;;;;;;25.65;37.84;99118.94;107996;1272;94334;-71
2022/07/16 09:56:18;;;;;;;7.40;2.40;;;;;;;25.69;37.71;99115.31;107235;1274;96539;-69
2022/07/16 09:58:52;;;;;;;5.20;2.00;;;;;;;25.75;37.66;99116.75;106515;1274;110048;-66
2022/07/16 10:01:24;;;;;;;8.60;2.30;;;;;;;25.52;37.52;99116.14;106164;1274;97049;-70
2022/07/16 10:03:55;;;;;;;3.70;2.30;;;;;;;25.26;37.44;99124.00;106236;1273;108349;-69
2022/07/16 10:06:23;;;;;;;11.30;2.80;;;;;;;24.88;37.19;99121.02;106171;1273;96589;-69
2022/07/16 10:08:55;;;;;;;7.90;2.50;;;;;;;24.60;37.26;99128.23;106209;1273;96615;-70
2022/07/16 10:11:26;;;;;;;8.70;2.70;;;;;;;24.23;36.84;99123.80;106188;1274;110615;-65
2022/07/16 10:13:58;;;;;;;13.00;3.40;;;;;;;24.06;37.08;99121.84;106241;1274;96972;-66
2022/07/16 10:16:41;;;;;;;6.90;2.50;;;;;;;24.14;37.18;99120.50;106183;1274;106893;-66
2022/07/16 10:19:09;;;;;;;5.10;2.00;;;;;;;24.25;37.08;99122.56;106207;1274;97089;-65
2022/07/16 10:21:39;;;;;;;5.80;2.10;;;;;;;24.26;36.84;99119.10;106316;1273;96346;-67
2022/07/16 10:24:10;;;;;;;11.70;2.70;;;;;;;24.18;36.95;99114.34;106065;1274;110222;-65
2022/07/16 10:26:38;;;;;;;10.00;2.50;;;;;;;24.24;37.08;99114.27;106078;1274;97057;-66
2022/07/16 10:29:08;;;;;;;5.50;2.00;;;;;;;24.33;36.97;99108.64;106108;1274;108860;-68
2022/07/16 10:34:40;;;;;;;8.30;2.70;;;;;;;23.96;36.41;99106.09;106236;1274;96592;-66
2022/07/16 10:37:12;;;;;;;9.60;2.30;;;;;;;23.65;36.37;99114.36;106113;1274;110629;-74
2022/07/16 10:40:00;;;;;;;;;;;;;;;23.33;36.30;99114.91;106123;1274;96584;-67
2022/07/16 10:42:28;;;;;;;8.20;2.40;;;;;;;23.09;36.17;99111.72;106067;1274;108330;-68
2022/07/16 10:44:57;;;;;;;10.00;2.40;;;;;;;22.91;36.02;99111.36;106117;1274;95658;-68
2022/07/16 10:47:46;;;;;;;8.50;2.60;;;;;;;22.70;36.21;99116.25;106271;1274;96589;-64
2022/07/16 10:50:21;;;;;;;8.90;2.40;;;;;;;22.56;36.23;99122.39;106135;1273;110089;-66
2022/07/16 10:52:51;;;;;;;8.90;2.90;;;;;;;22.43;36.22;99114.52;106157;1274;94347;-67
2022/07/16 10:55:38;;;;;;;7.10;2.40;;;;;;;22.41;36.15;99114.75;106129;1273;108186;-68
2022/07/16 10:58:08;;;;;;;9.60;2.60;;;;;;;22.37;36.04;99107.07;106147;1273;96539;-69
2022/07/16 11:00:36;;;;;;;6.00;2.50;;;;;;;22.34;36.17;99105.69;106140;1273;96546;-72
2022/07/16 11:03:04;;;;;;;8.30;2.90;;;;;;;22.39;36.13;99105.96;106190;1273;110061;-72
2022/07/16 11:05:54;;;;;;;7.20;2.80;;;;;;;22.34;36.04;99107.85;106199;1273;96538;-72
2022/07/16 11:08:22;;;;;;;7.50;2.20;;;;;;;22.22;35.86;99106.69;106252;1274;107663;-70
2022/07/16 11:10:49;;;;;;;7.40;2.90;;;;;;;22.16;35.91;99106.93;106246;1274;96591;-69
2022/07/16 11:13:17;;;;;;;7.90;2.70;;;;;;;22.06;35.65;99106.24;106243;1274;94245;-68
2022/07/16 11:15:48;;;;;;;6.80;2.70;;;;;;;21.99;35.59;99103.60;106230;1274;111087;-71
2022/07/16 11:18:17;;;;;;;7.00;2.50;;;;;;;21.93;35.58;99107.38;106236;1274;97186;-71
2022/07/16 11:20:47;;;;;;;7.50;2.50;;;;;;;21.84;35.71;99106.04;106054;1274;106645;-71
2022/07/16 11:23:17;;;;;;;6.90;2.60;;;;;;;21.81;35.80;99102.11;106093;1274;94652;-72
2022/07/16 11:25:57;;;;;;;5.50;2.20;;;;;;;21.78;35.80;99102.58;106160;1273;96536;-71
2022/07/16 11:28:26;;;;;;;10.20;3.20;;;;;;;21.77;35.81;99098.36;106079;1273;110019;-71
2022/07/16 11:31:02;;;;;;;9.50;3.40;;;;;;;21.88;36.20;99100.91;106118;1274;94274;-70
2022/07/16 11:33:51;;;;;;;11.60;3.10;;;;;;;21.98;35.99;99102.52;106174;1274;107713;-70
2022/07/16 11:36:19;;;;;;;6.70;2.70;;;;;;;22.03;36.10;99096.20;106202;1274;96534;-71
2022/07/16 11:38:48;;;;;;;7.50;2.50;;;;;;;22.10;36.11;99095.22;106213;1274;96626;-72
2022/07/16 11:41:18;;;;;;;9.30;2.60;;;;;;;22.20;36.18;99088.60;106204;1273;109283;-70
2022/07/16 11:43:46;;;;;;;8.60;2.80;;;;;;;22.26;36.04;99087.27;106136;1274;96486;-72
2022/07/16 11:46:23;;;;;;;9.10;2.80;;;;;;;22.36;36.23;99085.79;106020;1272;107817;-71